sensor_id;sensor_type;location;lat;lon;timestamp;P1;durP1;ratioP1;P2;durP2;ratioP2
17214;SDS011;8723;51.502;6.918;2023-12-07T00:00:38;114.07;;;81.60;;
17214;SDS011;8723;51.502;6.918;2023-12-07T00:03:08;105.20;;;77.20;;
17214;SDS011;8723;51.502;6.918;2023-12-07T00:05:36;96.13;;;71.38;;
17214;SDS011;8723;51.502;6.918;2023-12-07T00:08:05;98.40;;;71.60;;
17214;SDS011;8723;51.502;6.918;2023-12-07T00:10:31;112.13;;;77.97;;
17214;SDS011;8723;51.502;6.918;2023-12-07T00:12:58;124.53;;;84.72;;
17214;SDS011;8723;51.502;6.918;2023-12-07T00:15:25;113.47;;;80.78;;
17214;SDS011;8723;51.502;6.918;2023-12-07T00:17:51;133.18;;;86.65;;
17214;SDS011;8723;51.502;6.918;2023-12-07T00:20:20;136.90;;;89.93;;
17214;SDS011;8723;51.502;6.918;2023-12-07T00:22:46;133.45;;;89.15;;
17214;SDS011;8723;51.502;6.918;2023-12-07T00:25:13;134.20;;;88.88;;
17214;SDS011;8723;51.502;6.918;2023-12-07T00:27:41;143.10;;;91.97;;
17214;SDS011;8723;51.502;6.918;2023-12-07T00:30:08;131.98;;;90.53;;
17214;SDS011;8723;51.502;6.918;2023-12-07T00:32:35;129.57;;;87.20;;
17214;SDS011;8723;51.502;6.918;2023-12-07T00:35:03;140.07;;;91.93;;
17214;SDS011;8723;51.502;6.918;2023-12-07T00:37:31;138.45;;;92.53;;
17214;SDS011;8723;51.502;6.918;2023-12-07T00:39:58;136.60;;;90.45;;
17214;SDS011;8723;51.502;6.918;2023-12-07T00:42:26;130.95;;;87.55;;
17214;SDS011;8723;51.502;6.918;2023-12-07T00:44:52;145.07;;;93.10;;
17214;SDS011;8723;51.502;6.918;2023-12-07T00:47:20;137.82;;;89.68;;
17214;SDS011;8723;51.502;6.918;2023-12-07T00:49:47;131.05;;;88.43;;
17214;SDS011;8723;51.502;6.918;2023-12-07T00:52:14;130.13;;;87.45;;
17214;SDS011;8723;51.502;6.918;2023-12-07T00:54:42;128.02;;;87.25;;
17214;SDS011;8723;51.502;6.918;2023-12-07T00:57:09;135.63;;;92.70;;
17214;SDS011;8723;51.502;6.918;2023-12-07T00:59:35;125.80;;;87.53;;
17214;SDS011;8723;51.502;6.918;2023-12-07T01:02:02;123.22;;;86.20;;
17214;SDS011;8723;51.502;6.918;2023-12-07T01:04:30;122.72;;;86.22;;
17214;SDS011;8723;51.502;6.918;2023-12-07T01:06:57;132.45;;;93.03;;
17214;SDS011;8723;51.502;6.918;2023-12-07T01:09:24;127.40;;;90.32;;
17214;SDS011;8723;51.502;6.918;2023-12-07T01:11:52;119.50;;;84.78;;
17214;SDS011;8723;51.502;6.918;2023-12-07T01:14:19;120.05;;;87.30;;
17214;SDS011;8723;51.502;6.918;2023-12-07T01:16:46;127.13;;;90.32;;
17214;SDS011;8723;51.502;6.918;2023-12-07T01:19:12;116.87;;;85.20;;
17214;SDS011;8723;51.502;6.918;2023-12-07T01:21:39;130.07;;;92.55;;
17214;SDS011;8723;51.502;6.918;2023-12-07T01:24:06;122.53;;;87.35;;
17214;SDS011;8723;51.502;6.918;2023-12-07T01:26:33;125.70;;;89.45;;
17214;SDS011;8723;51.502;6.918;2023-12-07T01:29:01;123.65;;;89.78;;
17214;SDS011;8723;51.502;6.918;2023-12-07T01:31:29;125.88;;;84.57;;
17214;SDS011;8723;51.502;6.918;2023-12-07T01:33:58;133.18;;;90.53;;
17214;SDS011;8723;51.502;6.918;2023-12-07T01:36:25;121.03;;;83.43;;
17214;SDS011;8723;51.502;6.918;2023-12-07T01:38:52;141.50;;;93.13;;
17214;SDS011;8723;51.502;6.918;2023-12-07T01:41:19;142.25;;;94.63;;
17214;SDS011;8723;51.502;6.918;2023-12-07T01:43:45;122.03;;;82.93;;
17214;SDS011;8723;51.502;6.918;2023-12-07T01:46:14;115.45;;;80.90;;
17214;SDS011;8723;51.502;6.918;2023-12-07T01:48:41;122.05;;;85.35;;
17214;SDS011;8723;51.502;6.918;2023-12-07T01:51:08;117.70;;;84.28;;
17214;SDS011;8723;51.502;6.918;2023-12-07T01:53:37;111.17;;;79.30;;
17214;SDS011;8723;51.502;6.918;2023-12-07T01:56:05;132.15;;;90.05;;
17214;SDS011;8723;51.502;6.918;2023-12-07T01:58:35;116.32;;;81.97;;
17214;SDS011;8723;51.502;6.918;2023-12-07T02:01:02;120.70;;;83.68;;
17214;SDS011;8723;51.502;6.918;2023-12-07T02:03:32;111.78;;;80.25;;
17214;SDS011;8723;51.502;6.918;2023-12-07T02:05:59;127.83;;;88.80;;
17214;SDS011;8723;51.502;6.918;2023-12-07T02:08:27;114.53;;;79.57;;
17214;SDS011;8723;51.502;6.918;2023-12-07T02:10:54;106.78;;;75.85;;
17214;SDS011;8723;51.502;6.918;2023-12-07T02:13:21;117.50;;;82.35;;
17214;SDS011;8723;51.502;6.918;2023-12-07T02:15:48;121.20;;;83.43;;
17214;SDS011;8723;51.502;6.918;2023-12-07T02:18:16;123.68;;;85.38;;
17214;SDS011;8723;51.502;6.918;2023-12-07T02:20:50;139.40;;;94.60;;
17214;SDS011;8723;51.502;6.918;2023-12-07T02:23:24;132.85;;;88.38;;
17214;SDS011;8723;51.502;6.918;2023-12-07T02:25:53;136.35;;;89.85;;
17214;SDS011;8723;51.502;6.918;2023-12-07T02:28:24;138.48;;;92.05;;
17214;SDS011;8723;51.502;6.918;2023-12-07T02:30:51;130.07;;;86.77;;
17214;SDS011;8723;51.502;6.918;2023-12-07T02:33:18;156.90;;;97.93;;
17214;SDS011;8723;51.502;6.918;2023-12-07T02:35:45;135.02;;;87.72;;
17214;SDS011;8723;51.502;6.918;2023-12-07T02:38:12;159.88;;;100.15;;
17214;SDS011;8723;51.502;6.918;2023-12-07T02:40:39;144.00;;;90.97;;
17214;SDS011;8723;51.502;6.918;2023-12-07T02:43:08;162.93;;;102.53;;
17214;SDS011;8723;51.502;6.918;2023-12-07T02:45:40;147.20;;;93.47;;
17214;SDS011;8723;51.502;6.918;2023-12-07T02:48:10;159.98;;;96.03;;
17214;SDS011;8723;51.502;6.918;2023-12-07T02:50:40;159.63;;;96.63;;
17214;SDS011;8723;51.502;6.918;2023-12-07T02:53:09;142.65;;;87.63;;
17214;SDS011;8723;51.502;6.918;2023-12-07T02:55:39;147.38;;;91.13;;
17214;SDS011;8723;51.502;6.918;2023-12-07T02:58:09;156.00;;;98.63;;
17214;SDS011;8723;51.502;6.918;2023-12-07T03:00:40;166.77;;;100.75;;
17214;SDS011;8723;51.502;6.918;2023-12-07T03:03:10;149.02;;;94.40;;
17214;SDS011;8723;51.502;6.918;2023-12-07T03:05:40;152.45;;;93.55;;
17214;SDS011;8723;51.502;6.918;2023-12-07T03:08:10;150.63;;;92.53;;
17214;SDS011;8723;51.502;6.918;2023-12-07T03:10:40;151.45;;;92.90;;
17214;SDS011;8723;51.502;6.918;2023-12-07T03:13:09;166.05;;;100.03;;
17214;SDS011;8723;51.502;6.918;2023-12-07T03:15:36;161.97;;;97.60;;
17214;SDS011;8723;51.502;6.918;2023-12-07T03:18:04;166.97;;;102.27;;
17214;SDS011;8723;51.502;6.918;2023-12-07T03:20:33;172.27;;;103.03;;
17214;SDS011;8723;51.502;6.918;2023-12-07T03:23:03;158.25;;;95.53;;
17214;SDS011;8723;51.502;6.918;2023-12-07T03:25:33;160.43;;;96.78;;
17214;SDS011;8723;51.502;6.918;2023-12-07T03:28:02;155.48;;;96.32;;
17214;SDS011;8723;51.502;6.918;2023-12-07T03:30:30;148.35;;;88.55;;
17214;SDS011;8723;51.502;6.918;2023-12-07T03:33:00;175.48;;;102.20;;
17214;SDS011;8723;51.502;6.918;2023-12-07T03:35:31;190.00;;;105.97;;
17214;SDS011;8723;51.502;6.918;2023-12-07T03:38:01;179.65;;;101.43;;
17214;SDS011;8723;51.502;6.918;2023-12-07T03:40:29;149.10;;;88.37;;
17214;SDS011;8723;51.502;6.918;2023-12-07T03:42:58;164.63;;;95.22;;
17214;SDS011;8723;51.502;6.918;2023-12-07T03:45:25;154.30;;;89.40;;
17214;SDS011;8723;51.502;6.918;2023-12-07T03:47:53;157.88;;;92.43;;
17214;SDS011;8723;51.502;6.918;2023-12-07T03:50:20;183.77;;;102.37;;
17214;SDS011;8723;51.502;6.918;2023-12-07T03:52:48;176.02;;;98.22;;
17214;SDS011;8723;51.502;6.918;2023-12-07T03:55:15;147.32;;;83.93;;
17214;SDS011;8723;51.502;6.918;2023-12-07T03:57:41;145.15;;;84.47;;
17214;SDS011;8723;51.502;6.918;2023-12-07T04:00:10;164.82;;;91.68;;
17214;SDS011;8723;51.502;6.918;2023-12-07T04:02:38;157.05;;;92.40;;
17214;SDS011;8723;51.502;6.918;2023-12-07T04:05:08;176.85;;;98.47;;
17214;SDS011;8723;51.502;6.918;2023-12-07T04:07:38;158.73;;;87.60;;
17214;SDS011;8723;51.502;6.918;2023-12-07T04:10:09;179.77;;;97.03;;
17214;SDS011;8723;51.502;6.918;2023-12-07T04:12:38;174.38;;;95.47;;
17214;SDS011;8723;51.502;6.918;2023-12-07T04:15:08;145.00;;;81.80;;
17214;SDS011;8723;51.502;6.918;2023-12-07T04:17:35;149.10;;;83.53;;
17214;SDS011;8723;51.502;6.918;2023-12-07T04:20:02;179.77;;;95.53;;
17214;SDS011;8723;51.502;6.918;2023-12-07T04:22:29;184.00;;;96.63;;
17214;SDS011;8723;51.502;6.918;2023-12-07T04:24:56;150.07;;;82.25;;
17214;SDS011;8723;51.502;6.918;2023-12-07T04:27:24;187.70;;;100.00;;
17214;SDS011;8723;51.502;6.918;2023-12-07T04:29:51;162.55;;;88.82;;
17214;SDS011;8723;51.502;6.918;2023-12-07T04:32:18;157.50;;;85.63;;
17214;SDS011;8723;51.502;6.918;2023-12-07T04:34:44;169.05;;;92.13;;
17214;SDS011;8723;51.502;6.918;2023-12-07T04:37:11;130.93;;;73.28;;
17214;SDS011;8723;51.502;6.918;2023-12-07T04:39:38;167.20;;;88.95;;
17214;SDS011;8723;51.502;6.918;2023-12-07T04:42:05;181.03;;;94.47;;
17214;SDS011;8723;51.502;6.918;2023-12-07T04:44:33;128.63;;;70.00;;
17214;SDS011;8723;51.502;6.918;2023-12-07T04:47:00;158.45;;;86.13;;
17214;SDS011;8723;51.502;6.918;2023-12-07T04:49:26;163.35;;;86.45;;
17214;SDS011;8723;51.502;6.918;2023-12-07T04:51:53;155.80;;;86.03;;
17214;SDS011;8723;51.502;6.918;2023-12-07T04:54:20;143.95;;;77.68;;
17214;SDS011;8723;51.502;6.918;2023-12-07T04:56:47;157.27;;;85.40;;
17214;SDS011;8723;51.502;6.918;2023-12-07T04:59:13;126.47;;;69.78;;
17214;SDS011;8723;51.502;6.918;2023-12-07T05:01:42;113.38;;;63.00;;
17214;SDS011;8723;51.502;6.918;2023-12-07T05:04:09;152.13;;;80.93;;
17214;SDS011;8723;51.502;6.918;2023-12-07T05:06:35;125.28;;;67.00;;
17214;SDS011;8723;51.502;6.918;2023-12-07T05:09:02;127.20;;;66.77;;
17214;SDS011;8723;51.502;6.918;2023-12-07T05:11:29;159.57;;;81.57;;
17214;SDS011;8723;51.502;6.918;2023-12-07T05:13:56;156.52;;;77.53;;
17214;SDS011;8723;51.502;6.918;2023-12-07T05:16:22;151.15;;;77.97;;
17214;SDS011;8723;51.502;6.918;2023-12-07T05:18:50;151.35;;;76.22;;
17214;SDS011;8723;51.502;6.918;2023-12-07T05:21:18;141.80;;;72.97;;
17214;SDS011;8723;51.502;6.918;2023-12-07T05:23:45;119.05;;;63.00;;
17214;SDS011;8723;51.502;6.918;2023-12-07T05:26:12;130.38;;;69.05;;
17214;SDS011;8723;51.502;6.918;2023-12-07T05:28:38;135.75;;;70.78;;
17214;SDS011;8723;51.502;6.918;2023-12-07T05:31:05;129.40;;;67.93;;
17214;SDS011;8723;51.502;6.918;2023-12-07T05:33:32;142.73;;;72.47;;
17214;SDS011;8723;51.502;6.918;2023-12-07T05:36:00;117.10;;;62.40;;
17214;SDS011;8723;51.502;6.918;2023-12-07T05:38:28;133.60;;;69.10;;
17214;SDS011;8723;51.502;6.918;2023-12-07T05:40:55;130.05;;;67.70;;
17214;SDS011;8723;51.502;6.918;2023-12-07T05:43:22;139.02;;;70.97;;
17214;SDS011;8723;51.502;6.918;2023-12-07T05:45:48;123.85;;;63.67;;
17214;SDS011;8723;51.502;6.918;2023-12-07T05:48:15;133.73;;;65.77;;
17214;SDS011;8723;51.502;6.918;2023-12-07T05:50:42;133.73;;;67.00;;
17214;SDS011;8723;51.502;6.918;2023-12-07T05:53:10;133.70;;;68.97;;
17214;SDS011;8723;51.502;6.918;2023-12-07T05:55:38;120.40;;;62.85;;
17214;SDS011;8723;51.502;6.918;2023-12-07T05:58:05;127.97;;;65.47;;
17214;SDS011;8723;51.502;6.918;2023-12-07T06:00:32;146.52;;;69.43;;
17214;SDS011;8723;51.502;6.918;2023-12-07T06:02:58;130.27;;;65.18;;
17214;SDS011;8723;51.502;6.918;2023-12-07T06:05:25;133.23;;;68.25;;
17214;SDS011;8723;51.502;6.918;2023-12-07T06:07:52;134.90;;;69.03;;
17214;SDS011;8723;51.502;6.918;2023-12-07T06:10:21;120.25;;;62.08;;
17214;SDS011;8723;51.502;6.918;2023-12-07T06:12:48;132.63;;;67.35;;
17214;SDS011;8723;51.502;6.918;2023-12-07T06:15:15;132.27;;;66.30;;
17214;SDS011;8723;51.502;6.918;2023-12-07T06:17:42;131.43;;;67.47;;
17214;SDS011;8723;51.502;6.918;2023-12-07T06:20:09;122.43;;;61.20;;
17214;SDS011;8723;51.502;6.918;2023-12-07T06:22:36;134.82;;;68.57;;
17214;SDS011;8723;51.502;6.918;2023-12-07T06:25:04;161.13;;;79.43;;
17214;SDS011;8723;51.502;6.918;2023-12-07T06:27:34;158.05;;;82.43;;
17214;SDS011;8723;51.502;6.918;2023-12-07T06:30:02;169.95;;;89.00;;
17214;SDS011;8723;51.502;6.918;2023-12-07T06:32:30;161.00;;;81.07;;
17214;SDS011;8723;51.502;6.918;2023-12-07T06:34:57;146.10;;;75.95;;
17214;SDS011;8723;51.502;6.918;2023-12-07T06:37:24;142.13;;;71.22;;
17214;SDS011;8723;51.502;6.918;2023-12-07T06:39:51;139.85;;;67.32;;
17214;SDS011;8723;51.502;6.918;2023-12-07T06:42:18;147.48;;;69.18;;
17214;SDS011;8723;51.502;6.918;2023-12-07T06:44:47;129.30;;;62.28;;
17214;SDS011;8723;51.502;6.918;2023-12-07T06:47:14;141.03;;;68.07;;
17214;SDS011;8723;51.502;6.918;2023-12-07T06:49:41;143.77;;;68.53;;
17214;SDS011;8723;51.502;6.918;2023-12-07T06:52:08;143.38;;;69.47;;
17214;SDS011;8723;51.502;6.918;2023-12-07T06:54:36;140.75;;;66.53;;
17214;SDS011;8723;51.502;6.918;2023-12-07T06:57:03;117.55;;;58.95;;
17214;SDS011;8723;51.502;6.918;2023-12-07T06:59:31;126.32;;;61.20;;
17214;SDS011;8723;51.502;6.918;2023-12-07T07:02:00;149.35;;;69.25;;
17214;SDS011;8723;51.502;6.918;2023-12-07T07:04:27;156.80;;;73.72;;
17214;SDS011;8723;51.502;6.918;2023-12-07T07:06:54;148.35;;;69.53;;
17214;SDS011;8723;51.502;6.918;2023-12-07T07:09:21;160.23;;;76.53;;
17214;SDS011;8723;51.502;6.918;2023-12-07T07:11:48;145.55;;;71.78;;
17214;SDS011;8723;51.502;6.918;2023-12-07T07:14:15;156.45;;;74.28;;
17214;SDS011;8723;51.502;6.918;2023-12-07T07:16:42;169.10;;;78.03;;
17214;SDS011;8723;51.502;6.918;2023-12-07T07:19:10;166.93;;;78.70;;
17214;SDS011;8723;51.502;6.918;2023-12-07T07:21:37;172.65;;;78.30;;
17214;SDS011;8723;51.502;6.918;2023-12-07T07:24:05;163.13;;;77.10;;
17214;SDS011;8723;51.502;6.918;2023-12-07T07:26:32;140.55;;;67.82;;
17214;SDS011;8723;51.502;6.918;2023-12-07T07:28:59;148.10;;;70.38;;
17214;SDS011;8723;51.502;6.918;2023-12-07T07:31:25;160.80;;;75.05;;
17214;SDS011;8723;51.502;6.918;2023-12-07T07:33:52;142.80;;;69.97;;
17214;SDS011;8723;51.502;6.918;2023-12-07T07:36:20;152.45;;;68.53;;
17214;SDS011;8723;51.502;6.918;2023-12-07T07:38:47;173.60;;;79.10;;
17214;SDS011;8723;51.502;6.918;2023-12-07T07:41:14;147.48;;;71.68;;
17214;SDS011;8723;51.502;6.918;2023-12-07T07:43:41;163.48;;;76.07;;
17214;SDS011;8723;51.502;6.918;2023-12-07T07:46:08;166.68;;;76.47;;
17214;SDS011;8723;51.502;6.918;2023-12-07T07:48:34;162.13;;;74.43;;
17214;SDS011;8723;51.502;6.918;2023-12-07T07:51:02;144.77;;;70.40;;
17214;SDS011;8723;51.502;6.918;2023-12-07T07:53:30;148.45;;;70.43;;
17214;SDS011;8723;51.502;6.918;2023-12-07T07:55:57;171.63;;;80.43;;
17214;SDS011;8723;51.502;6.918;2023-12-07T07:58:24;168.13;;;79.30;;
17214;SDS011;8723;51.502;6.918;2023-12-07T08:00:51;168.40;;;77.45;;
17214;SDS011;8723;51.502;6.918;2023-12-07T08:03:17;174.23;;;82.13;;
17214;SDS011;8723;51.502;6.918;2023-12-07T08:05:44;137.70;;;66.03;;
17214;SDS011;8723;51.502;6.918;2023-12-07T08:08:11;186.57;;;85.35;;
17214;SDS011;8723;51.502;6.918;2023-12-07T08:10:39;169.88;;;80.07;;
17214;SDS011;8723;51.502;6.918;2023-12-07T08:13:06;165.70;;;77.53;;
17214;SDS011;8723;51.502;6.918;2023-12-07T08:15:33;177.43;;;82.88;;
17214;SDS011;8723;51.502;6.918;2023-12-07T08:18:00;180.32;;;85.53;;
17214;SDS011;8723;51.502;6.918;2023-12-07T08:20:27;166.87;;;78.97;;
17214;SDS011;8723;51.502;6.918;2023-12-07T08:22:54;168.30;;;79.97;;
17214;SDS011;8723;51.502;6.918;2023-12-07T08:25:20;149.18;;;72.10;;
17214;SDS011;8723;51.502;6.918;2023-12-07T08:27:49;158.50;;;77.53;;
17214;SDS011;8723;51.502;6.918;2023-12-07T08:30:15;166.93;;;79.07;;
17214;SDS011;8723;51.502;6.918;2023-12-07T08:32:43;156.20;;;75.20;;
17214;SDS011;8723;51.502;6.918;2023-12-07T08:35:10;150.80;;;73.32;;
17214;SDS011;8723;51.502;6.918;2023-12-07T08:37:37;174.65;;;83.32;;
17214;SDS011;8723;51.502;6.918;2023-12-07T08:40:05;134.73;;;65.95;;
17214;SDS011;8723;51.502;6.918;2023-12-07T08:42:33;171.05;;;82.93;;
17214;SDS011;8723;51.502;6.918;2023-12-07T08:45:01;139.05;;;68.55;;
17214;SDS011;8723;51.502;6.918;2023-12-07T08:47:28;168.10;;;80.65;;
17214;SDS011;8723;51.502;6.918;2023-12-07T08:49:56;154.02;;;77.78;;
17214;SDS011;8723;51.502;6.918;2023-12-07T08:52:23;131.60;;;65.78;;
17214;SDS011;8723;51.502;6.918;2023-12-07T08:54:50;144.57;;;73.07;;
17214;SDS011;8723;51.502;6.918;2023-12-07T08:57:17;116.13;;;60.15;;
17214;SDS011;8723;51.502;6.918;2023-12-07T08:59:44;115.38;;;58.38;;
17214;SDS011;8723;51.502;6.918;2023-12-07T09:02:12;159.35;;;75.95;;
17214;SDS011;8723;51.502;6.918;2023-12-07T09:04:39;124.70;;;61.25;;
17214;SDS011;8723;51.502;6.918;2023-12-07T09:07:06;124.97;;;64.05;;
17214;SDS011;8723;51.502;6.918;2023-12-07T09:09:34;141.73;;;68.47;;
17214;SDS011;8723;51.502;6.918;2023-12-07T09:12:01;106.95;;;56.85;;
17214;SDS011;8723;51.502;6.918;2023-12-07T09:14:28;108.10;;;56.70;;
17214;SDS011;8723;51.502;6.918;2023-12-07T09:16:55;119.30;;;61.80;;
17214;SDS011;8723;51.502;6.918;2023-12-07T09:19:23;109.65;;;59.20;;
17214;SDS011;8723;51.502;6.918;2023-12-07T09:21:49;100.70;;;54.55;;
17214;SDS011;8723;51.502;6.918;2023-12-07T09:24:16;122.82;;;62.70;;
17214;SDS011;8723;51.502;6.918;2023-12-07T09:26:43;73.03;;;39.88;;
17214;SDS011;8723;51.502;6.918;2023-12-07T09:29:10;102.82;;;56.50;;
17214;SDS011;8723;51.502;6.918;2023-12-07T09:31:36;68.78;;;40.35;;
17214;SDS011;8723;51.502;6.918;2023-12-07T09:34:03;74.05;;;43.20;;
17214;SDS011;8723;51.502;6.918;2023-12-07T09:36:31;83.18;;;47.15;;
17214;SDS011;8723;51.502;6.918;2023-12-07T09:38:58;70.55;;;38.80;;
17214;SDS011;8723;51.502;6.918;2023-12-07T09:41:25;70.60;;;41.72;;
17214;SDS011;8723;51.502;6.918;2023-12-07T09:43:53;75.03;;;42.58;;
17214;SDS011;8723;51.502;6.918;2023-12-07T09:46:20;106.22;;;56.10;;
17214;SDS011;8723;51.502;6.918;2023-12-07T09:48:47;52.03;;;31.08;;
17214;SDS011;8723;51.502;6.918;2023-12-07T09:51:15;111.00;;;56.63;;
17214;SDS011;8723;51.502;6.918;2023-12-07T09:53:43;106.80;;;55.70;;
17214;SDS011;8723;51.502;6.918;2023-12-07T09:56:14;74.57;;;40.45;;
17214;SDS011;8723;51.502;6.918;2023-12-07T09:58:41;74.78;;;41.47;;
17214;SDS011;8723;51.502;6.918;2023-12-07T10:01:08;110.20;;;56.70;;
17214;SDS011;8723;51.502;6.918;2023-12-07T10:03:38;103.17;;;53.37;;
17214;SDS011;8723;51.502;6.918;2023-12-07T10:06:06;106.47;;;53.95;;
17214;SDS011;8723;51.502;6.918;2023-12-07T10:08:33;112.20;;;55.42;;
17214;SDS011;8723;51.502;6.918;2023-12-07T10:11:05;95.05;;;51.50;;
17214;SDS011;8723;51.502;6.918;2023-12-07T10:13:33;97.93;;;54.53;;
17214;SDS011;8723;51.502;6.918;2023-12-07T10:16:08;74.50;;;41.10;;
17214;SDS011;8723;51.502;6.918;2023-12-07T10:18:36;78.10;;;43.00;;
17214;SDS011;8723;51.502;6.918;2023-12-07T10:21:05;53.90;;;32.47;;
17214;SDS011;8723;51.502;6.918;2023-12-07T10:23:33;82.05;;;44.38;;
17214;SDS011;8723;51.502;6.918;2023-12-07T10:26:00;84.55;;;44.97;;
17214;SDS011;8723;51.502;6.918;2023-12-07T10:28:29;74.00;;;41.90;;
17214;SDS011;8723;51.502;6.918;2023-12-07T10:30:56;84.68;;;46.47;;
17214;SDS011;8723;51.502;6.918;2023-12-07T10:33:25;76.47;;;43.17;;
17214;SDS011;8723;51.502;6.918;2023-12-07T10:35:52;99.70;;;53.00;;
17214;SDS011;8723;51.502;6.918;2023-12-07T10:38:21;72.78;;;41.75;;
17214;SDS011;8723;51.502;6.918;2023-12-07T10:40:48;82.97;;;47.87;;
17214;SDS011;8723;51.502;6.918;2023-12-07T10:43:17;100.75;;;57.60;;
17214;SDS011;8723;51.502;6.918;2023-12-07T10:45:48;80.70;;;45.65;;
17214;SDS011;8723;51.502;6.918;2023-12-07T10:48:15;91.17;;;51.60;;
17214;SDS011;8723;51.502;6.918;2023-12-07T10:50:44;80.88;;;46.55;;
17214;SDS011;8723;51.502;6.918;2023-12-07T10:53:14;74.35;;;44.78;;
17214;SDS011;8723;51.502;6.918;2023-12-07T10:55:47;54.10;;;34.20;;
17214;SDS011;8723;51.502;6.918;2023-12-07T10:58:19;85.13;;;49.20;;
17214;SDS011;8723;51.502;6.918;2023-12-07T11:00:51;50.92;;;31.88;;
17214;SDS011;8723;51.502;6.918;2023-12-07T11:03:19;74.87;;;44.50;;
17214;SDS011;8723;51.502;6.918;2023-12-07T11:05:47;74.22;;;43.42;;
17214;SDS011;8723;51.502;6.918;2023-12-07T11:08:15;61.30;;;39.10;;
17214;SDS011;8723;51.502;6.918;2023-12-07T11:10:50;54.95;;;35.60;;
17214;SDS011;8723;51.502;6.918;2023-12-07T11:13:27;50.25;;;33.58;;
17214;SDS011;8723;51.502;6.918;2023-12-07T11:15:57;64.65;;;39.28;;
17214;SDS011;8723;51.502;6.918;2023-12-07T11:18:24;76.10;;;46.92;;
17214;SDS011;8723;51.502;6.918;2023-12-07T11:20:51;62.08;;;39.75;;
17214;SDS011;8723;51.502;6.918;2023-12-07T11:23:20;51.30;;;34.33;;
17214;SDS011;8723;51.502;6.918;2023-12-07T11:25:47;59.70;;;39.78;;
17214;SDS011;8723;51.502;6.918;2023-12-07T11:28:15;56.35;;;35.45;;
17214;SDS011;8723;51.502;6.918;2023-12-07T11:30:44;58.47;;;37.50;;
17214;SDS011;8723;51.502;6.918;2023-12-07T11:33:13;56.28;;;35.60;;
17214;SDS011;8723;51.502;6.918;2023-12-07T11:38:31;51.85;;;36.15;;
17214;SDS011;8723;51.502;6.918;2023-12-07T11:40:58;51.13;;;33.63;;
17214;SDS011;8723;51.502;6.918;2023-12-07T11:43:31;51.33;;;34.45;;
17214;SDS011;8723;51.502;6.918;2023-12-07T11:46:03;50.88;;;34.35;;
17214;SDS011;8723;51.502;6.918;2023-12-07T11:48:32;51.72;;;35.33;;
17214;SDS011;8723;51.502;6.918;2023-12-07T11:50:59;44.42;;;31.52;;
17214;SDS011;8723;51.502;6.918;2023-12-07T11:53:27;50.33;;;35.88;;
17214;SDS011;8723;51.502;6.918;2023-12-07T11:55:55;53.60;;;38.50;;
17214;SDS011;8723;51.502;6.918;2023-12-07T11:58:25;51.40;;;36.33;;
17214;SDS011;8723;51.502;6.918;2023-12-07T12:00:54;50.03;;;35.30;;
17214;SDS011;8723;51.502;6.918;2023-12-07T12:03:21;48.92;;;33.88;;
17214;SDS011;8723;51.502;6.918;2023-12-07T12:05:50;54.63;;;36.95;;
17214;SDS011;8723;51.502;6.918;2023-12-07T12:08:17;55.50;;;37.05;;
17214;SDS011;8723;51.502;6.918;2023-12-07T12:10:44;43.08;;;30.45;;
17214;SDS011;8723;51.502;6.918;2023-12-07T12:13:12;47.08;;;34.45;;
17214;SDS011;8723;51.502;6.918;2023-12-07T12:15:39;40.20;;;29.65;;
17214;SDS011;8723;51.502;6.918;2023-12-07T12:18:07;54.07;;;39.37;;
17214;SDS011;8723;51.502;6.918;2023-12-07T12:20:35;54.33;;;40.50;;
17214;SDS011;8723;51.502;6.918;2023-12-07T12:23:03;59.90;;;41.33;;
17214;SDS011;8723;51.502;6.918;2023-12-07T12:25:30;51.97;;;37.53;;
17214;SDS011;8723;51.502;6.918;2023-12-07T12:27:58;44.97;;;33.15;;
17214;SDS011;8723;51.502;6.918;2023-12-07T12:30:28;39.97;;;31.13;;
17214;SDS011;8723;51.502;6.918;2023-12-07T12:32:55;40.78;;;30.77;;
17214;SDS011;8723;51.502;6.918;2023-12-07T12:35:23;53.65;;;38.50;;
17214;SDS011;8723;51.502;6.918;2023-12-07T12:37:50;42.25;;;31.48;;
17214;SDS011;8723;51.502;6.918;2023-12-07T12:40:19;43.17;;;33.23;;
17214;SDS011;8723;51.502;6.918;2023-12-07T12:42:47;37.47;;;29.05;;
17214;SDS011;8723;51.502;6.918;2023-12-07T12:45:16;39.13;;;29.17;;
17214;SDS011;8723;51.502;6.918;2023-12-07T12:47:44;41.22;;;30.45;;
17214;SDS011;8723;51.502;6.918;2023-12-07T12:50:12;45.65;;;33.47;;
17214;SDS011;8723;51.502;6.918;2023-12-07T12:52:58;52.17;;;37.45;;
17214;SDS011;8723;51.502;6.918;2023-12-07T12:55:26;45.90;;;35.10;;
17214;SDS011;8723;51.502;6.918;2023-12-07T12:57:54;41.45;;;32.75;;
17214;SDS011;8723;51.502;6.918;2023-12-07T13:00:22;35.25;;;28.08;;
17214;SDS011;8723;51.502;6.918;2023-12-07T13:02:50;36.72;;;28.98;;
17214;SDS011;8723;51.502;6.918;2023-12-07T13:05:17;40.75;;;30.77;;
17214;SDS011;8723;51.502;6.918;2023-12-07T13:07:44;41.42;;;32.35;;
17214;SDS011;8723;51.502;6.918;2023-12-07T13:10:13;42.93;;;31.30;;
17214;SDS011;8723;51.502;6.918;2023-12-07T13:12:42;36.15;;;28.92;;
17214;SDS011;8723;51.502;6.918;2023-12-07T13:15:10;38.42;;;30.00;;
17214;SDS011;8723;51.502;6.918;2023-12-07T13:17:38;40.85;;;30.48;;
17214;SDS011;8723;51.502;6.918;2023-12-07T13:20:05;44.05;;;32.90;;
17214;SDS011;8723;51.502;6.918;2023-12-07T13:22:35;50.38;;;35.78;;
17214;SDS011;8723;51.502;6.918;2023-12-07T13:25:02;42.33;;;31.98;;
17214;SDS011;8723;51.502;6.918;2023-12-07T13:27:30;51.65;;;38.67;;
17214;SDS011;8723;51.502;6.918;2023-12-07T13:29:59;41.00;;;32.17;;
17214;SDS011;8723;51.502;6.918;2023-12-07T13:32:26;39.92;;;32.28;;
17214;SDS011;8723;51.502;6.918;2023-12-07T13:34:52;46.42;;;35.75;;
17214;SDS011;8723;51.502;6.918;2023-12-07T13:37:19;42.00;;;32.85;;
17214;SDS011;8723;51.502;6.918;2023-12-07T13:39:46;47.20;;;35.53;;
17214;SDS011;8723;51.502;6.918;2023-12-07T13:42:18;41.05;;;30.98;;
17214;SDS011;8723;51.502;6.918;2023-12-07T13:44:44;36.55;;;29.40;;
17214;SDS011;8723;51.502;6.918;2023-12-07T13:47:14;42.35;;;33.70;;
17214;SDS011;8723;51.502;6.918;2023-12-07T13:49:45;35.63;;;29.48;;
17214;SDS011;8723;51.502;6.918;2023-12-07T13:52:12;38.03;;;29.97;;
17214;SDS011;8723;51.502;6.918;2023-12-07T13:54:41;34.63;;;28.33;;
17214;SDS011;8723;51.502;6.918;2023-12-07T13:57:08;42.33;;;31.75;;
17214;SDS011;8723;51.502;6.918;2023-12-07T13:59:35;34.83;;;28.88;;
17214;SDS011;8723;51.502;6.918;2023-12-07T14:02:03;35.70;;;28.23;;
17214;SDS011;8723;51.502;6.918;2023-12-07T14:04:31;41.42;;;33.00;;
17214;SDS011;8723;51.502;6.918;2023-12-07T14:07:06;38.78;;;30.23;;
17214;SDS011;8723;51.502;6.918;2023-12-07T14:09:34;41.17;;;33.72;;
17214;SDS011;8723;51.502;6.918;2023-12-07T14:12:00;34.57;;;28.10;;
17214;SDS011;8723;51.502;6.918;2023-12-07T14:14:27;34.83;;;28.10;;
17214;SDS011;8723;51.502;6.918;2023-12-07T14:16:54;36.58;;;29.40;;
17214;SDS011;8723;51.502;6.918;2023-12-07T14:19:21;34.22;;;27.88;;
17214;SDS011;8723;51.502;6.918;2023-12-07T14:21:49;40.25;;;31.85;;
17214;SDS011;8723;51.502;6.918;2023-12-07T14:24:16;43.63;;;32.75;;
17214;SDS011;8723;51.502;6.918;2023-12-07T14:26:43;35.30;;;28.23;;
17214;SDS011;8723;51.502;6.918;2023-12-07T14:29:09;46.22;;;33.55;;
17214;SDS011;8723;51.502;6.918;2023-12-07T14:31:39;34.22;;;26.92;;